sensor_id;sensor_type;location;lat;lon;timestamp;P1;durP1;ratioP1;P2;durP2;ratioP2
60430;SDS011;46285;45.122;20.726;2024-02-15T00:03:33;176.05;;;91.93;;
60430;SDS011;46285;45.122;20.726;2024-02-15T00:13:36;226.75;;;115.70;;
60430;SDS011;46285;45.122;20.726;2024-02-15T00:23:40;92.68;;;55.47;;
60430;SDS011;46285;45.122;20.726;2024-02-15T00:33:42;102.00;;;64.28;;
60430;SDS011;46285;45.122;20.726;2024-02-15T00:43:45;150.05;;;79.65;;
60430;SDS011;46285;45.122;20.726;2024-02-15T00:53:46;196.25;;;98.95;;
60430;SDS011;46285;45.122;20.726;2024-02-15T01:03:49;205.10;;;107.25;;
60430;SDS011;46285;45.122;20.726;2024-02-15T01:13:51;185.50;;;95.93;;
60430;SDS011;46285;45.122;20.726;2024-02-15T01:23:53;206.02;;;108.82;;
60430;SDS011;46285;45.122;20.726;2024-02-15T01:33:55;116.80;;;62.95;;
60430;SDS011;46285;45.122;20.726;2024-02-15T01:43:58;124.22;;;68.78;;
60430;SDS011;46285;45.122;20.726;2024-02-15T01:54:01;87.57;;;48.83;;
60430;SDS011;46285;45.122;20.726;2024-02-15T02:04:03;88.38;;;47.80;;
60430;SDS011;46285;45.122;20.726;2024-02-15T02:14:05;94.88;;;47.67;;
60430;SDS011;46285;45.122;20.726;2024-02-15T02:24:14;120.07;;;56.28;;
60430;SDS011;46285;45.122;20.726;2024-02-15T02:34:16;73.07;;;44.15;;
60430;SDS011;46285;45.122;20.726;2024-02-15T02:44:20;73.60;;;44.80;;
60430;SDS011;46285;45.122;20.726;2024-02-15T02:54:22;73.22;;;44.28;;
60430;SDS011;46285;45.122;20.726;2024-02-15T03:04:24;112.05;;;54.78;;
60430;SDS011;46285;45.122;20.726;2024-02-15T03:14:26;89.28;;;53.95;;
60430;SDS011;46285;45.122;20.726;2024-02-15T03:24:28;94.20;;;52.22;;
60430;SDS011;46285;45.122;20.726;2024-02-15T03:34:30;93.97;;;55.15;;
60430;SDS011;46285;45.122;20.726;2024-02-15T03:44:32;101.95;;;56.65;;
60430;SDS011;46285;45.122;20.726;2024-02-15T03:54:35;129.73;;;70.35;;
60430;SDS011;46285;45.122;20.726;2024-02-15T04:04:37;123.72;;;71.90;;
60430;SDS011;46285;45.122;20.726;2024-02-15T04:14:43;118.60;;;66.03;;
60430;SDS011;46285;45.122;20.726;2024-02-15T04:24:48;94.03;;;56.57;;
60430;SDS011;46285;45.122;20.726;2024-02-15T04:34:50;95.53;;;52.47;;
60430;SDS011;46285;45.122;20.726;2024-02-15T04:44:53;126.47;;;69.07;;
60430;SDS011;46285;45.122;20.726;2024-02-15T04:54:55;105.60;;;56.78;;
60430;SDS011;46285;45.122;20.726;2024-02-15T05:05:00;132.25;;;70.53;;
60430;SDS011;46285;45.122;20.726;2024-02-15T05:15:02;124.18;;;63.10;;
60430;SDS011;46285;45.122;20.726;2024-02-15T05:25:12;101.85;;;56.83;;
60430;SDS011;46285;45.122;20.726;2024-02-15T05:35:16;80.75;;;51.50;;
60430;SDS011;46285;45.122;20.726;2024-02-15T05:55:26;107.30;;;58.08;;
60430;SDS011;46285;45.122;20.726;2024-02-15T06:05:30;117.88;;;66.95;;
60430;SDS011;46285;45.122;20.726;2024-02-15T06:15:33;116.68;;;66.85;;
60430;SDS011;46285;45.122;20.726;2024-02-15T06:25:35;112.70;;;63.47;;
60430;SDS011;46285;45.122;20.726;2024-02-15T06:35:37;162.45;;;86.57;;
60430;SDS011;46285;45.122;20.726;2024-02-15T06:45:58;118.43;;;67.80;;
60430;SDS011;46285;45.122;20.726;2024-02-15T06:56:00;110.53;;;67.95;;
60430;SDS011;46285;45.122;20.726;2024-02-15T07:06:03;223.00;;;129.30;;
60430;SDS011;46285;45.122;20.726;2024-02-15T07:16:08;187.45;;;106.57;;
60430;SDS011;46285;45.122;20.726;2024-02-15T07:26:10;1043.13;;;563.83;;
60430;SDS011;46285;45.122;20.726;2024-02-15T07:36:13;527.00;;;331.38;;
60430;SDS011;46285;45.122;20.726;2024-02-15T07:46:17;85.63;;;59.90;;
60430;SDS011;46285;45.122;20.726;2024-02-15T07:56:19;66.05;;;46.60;;
60430;SDS011;46285;45.122;20.726;2024-02-15T08:06:21;54.58;;;36.67;;
60430;SDS011;46285;45.122;20.726;2024-02-15T08:16:26;61.72;;;40.40;;
60430;SDS011;46285;45.122;20.726;2024-02-15T08:26:38;45.23;;;33.47;;
60430;SDS011;46285;45.122;20.726;2024-02-15T08:36:40;47.13;;;32.50;;
60430;SDS011;46285;45.122;20.726;2024-02-15T08:46:42;47.00;;;32.67;;
60430;SDS011;46285;45.122;20.726;2024-02-15T08:56:45;55.72;;;40.10;;
60430;SDS011;46285;45.122;20.726;2024-02-15T09:06:47;62.63;;;39.45;;
60430;SDS011;46285;45.122;20.726;2024-02-15T09:16:49;41.33;;;28.50;;
60430;SDS011;46285;45.122;20.726;2024-02-15T09:26:51;44.33;;;28.95;;
60430;SDS011;46285;45.122;20.726;2024-02-15T09:36:53;36.72;;;27.17;;
60430;SDS011;46285;45.122;20.726;2024-02-15T09:47:06;40.13;;;27.65;;
60430;SDS011;46285;45.122;20.726;2024-02-15T09:57:13;28.85;;;21.77;;
60430;SDS011;46285;45.122;20.726;2024-02-15T10:07:15;31.60;;;18.38;;
60430;SDS011;46285;45.122;20.726;2024-02-15T10:17:19;28.42;;;18.50;;
60430;SDS011;46285;45.122;20.726;2024-02-15T10:27:23;21.05;;;14.60;;
60430;SDS011;46285;45.122;20.726;2024-02-15T10:37:28;31.08;;;18.00;;
60430;SDS011;46285;45.122;20.726;2024-02-15T10:47:31;26.58;;;19.23;;
60430;SDS011;46285;45.122;20.726;2024-02-15T10:57:33;24.60;;;16.98;;
60430;SDS011;46285;45.122;20.726;2024-02-15T11:07:38;41.87;;;26.93;;
60430;SDS011;46285;45.122;20.726;2024-02-15T11:17:46;22.00;;;15.23;;
60430;SDS011;46285;45.122;20.726;2024-02-15T11:27:55;40.03;;;29.30;;
60430;SDS011;46285;45.122;20.726;2024-02-15T11:37:58;21.27;;;12.63;;
60430;SDS011;46285;45.122;20.726;2024-02-15T11:48:07;44.83;;;30.88;;
60430;SDS011;46285;45.122;20.726;2024-02-15T11:58:16;22.52;;;16.02;;
60430;SDS011;46285;45.122;20.726;2024-02-15T12:08:22;29.45;;;20.65;;
60430;SDS011;46285;45.122;20.726;2024-02-15T12:18:43;32.78;;;20.10;;
60430;SDS011;46285;45.122;20.726;2024-02-15T12:28:50;15.27;;;10.85;;
60430;SDS011;46285;45.122;20.726;2024-02-15T12:39:00;25.15;;;15.77;;
60430;SDS011;46285;45.122;20.726;2024-02-15T12:49:27;14.38;;;9.18;;
60430;SDS011;46285;45.122;20.726;2024-02-15T12:59:29;16.67;;;10.02;;
60430;SDS011;46285;45.122;20.726;2024-02-15T13:09:32;13.68;;;8.43;;
60430;SDS011;46285;45.122;20.726;2024-02-15T13:19:34;15.55;;;7.85;;
60430;SDS011;46285;45.122;20.726;2024-02-15T13:29:42;14.57;;;9.10;;
60430;SDS011;46285;45.122;20.726;2024-02-15T13:39:49;22.20;;;13.03;;
60430;SDS011;46285;45.122;20.726;2024-02-15T13:49:52;23.92;;;11.57;;
60430;SDS011;46285;45.122;20.726;2024-02-15T13:59:55;16.02;;;10.57;;
60430;SDS011;46285;45.122;20.726;2024-02-15T14:10:27;19.23;;;14.05;;
60430;SDS011;46285;45.122;20.726;2024-02-15T14:20:36;13.70;;;8.73;;
60430;SDS011;46285;45.122;20.726;2024-02-15T14:30:39;17.92;;;12.35;;
60430;SDS011;46285;45.122;20.726;2024-02-15T14:41:00;20.38;;;12.55;;
60430;SDS011;46285;45.122;20.726;2024-02-15T14:51:04;26.55;;;14.50;;
60430;SDS011;46285;45.122;20.726;2024-02-15T15:01:06;24.15;;;17.05;;
60430;SDS011;46285;45.122;20.726;2024-02-15T15:11:08;20.27;;;11.77;;
60430;SDS011;46285;45.122;20.726;2024-02-15T15:21:29;40.92;;;26.50;;
60430;SDS011;46285;45.122;20.726;2024-02-15T15:31:31;31.33;;;19.08;;
60430;SDS011;46285;45.122;20.726;2024-02-15T15:41:34;46.53;;;30.83;;
60430;SDS011;46285;45.122;20.726;2024-02-15T15:51:41;66.70;;;44.57;;
60430;SDS011;46285;45.122;20.726;2024-02-15T16:01:47;68.85;;;46.55;;
60430;SDS011;46285;45.122;20.726;2024-02-15T16:11:50;50.35;;;32.20;;
60430;SDS011;46285;45.122;20.726;2024-02-15T16:21:54;91.97;;;50.08;;
60430;SDS011;46285;45.122;20.726;2024-02-15T16:31:57;72.75;;;52.55;;
60430;SDS011;46285;45.122;20.726;2024-02-15T16:42:00;199.23;;;102.85;;
60430;SDS011;46285;45.122;20.726;2024-02-15T16:52:04;131.10;;;103.95;;
60430;SDS011;46285;45.122;20.726;2024-02-15T17:02:06;139.98;;;93.80;;
60430;SDS011;46285;45.122;20.726;2024-02-15T17:12:09;204.75;;;113.25;;
60430;SDS011;46285;45.122;20.726;2024-02-15T17:22:11;242.57;;;129.50;;
60430;SDS011;46285;45.122;20.726;2024-02-15T17:32:13;880.00;;;401.02;;
60430;SDS011;46285;45.122;20.726;2024-02-15T17:42:16;248.38;;;125.78;;
60430;SDS011;46285;45.122;20.726;2024-02-15T17:52:18;161.52;;;100.95;;
60430;SDS011;46285;45.122;20.726;2024-02-15T18:02:20;193.20;;;131.32;;
60430;SDS011;46285;45.122;20.726;2024-02-15T18:12:23;200.65;;;126.32;;
60430;SDS011;46285;45.122;20.726;2024-02-15T18:22:28;388.27;;;249.83;;
60430;SDS011;46285;45.122;20.726;2024-02-15T18:32:30;636.05;;;437.73;;
60430;SDS011;46285;45.122;20.726;2024-02-15T18:42:36;401.77;;;251.63;;
60430;SDS011;46285;45.122;20.726;2024-02-15T18:52:38;196.32;;;111.30;;
60430;SDS011;46285;45.122;20.726;2024-02-15T19:02:41;210.15;;;123.35;;
60430;SDS011;46285;45.122;20.726;2024-02-15T19:12:46;148.30;;;83.53;;
60430;SDS011;46285;45.122;20.726;2024-02-15T19:22:48;366.63;;;138.80;;
60430;SDS011;46285;45.122;20.726;2024-02-15T19:32:51;224.02;;;135.77;;
60430;SDS011;46285;45.122;20.726;2024-02-15T19:42:54;180.32;;;105.45;;
60430;SDS011;46285;45.122;20.726;2024-02-15T19:52:58;67.00;;;41.05;;
60430;SDS011;46285;45.122;20.726;2024-02-15T20:03:01;138.05;;;78.32;;
60430;SDS011;46285;45.122;20.726;2024-02-15T20:13:05;234.23;;;145.40;;
60430;SDS011;46285;45.122;20.726;2024-02-15T20:23:08;307.67;;;159.82;;
60430;SDS011;46285;45.122;20.726;2024-02-15T20:33:10;350.33;;;154.73;;
60430;SDS011;46285;45.122;20.726;2024-02-15T20:43:16;309.77;;;171.67;;
60430;SDS011;46285;45.122;20.726;2024-02-15T20:53:19;155.25;;;108.03;;
60430;SDS011;46285;45.122;20.726;2024-02-15T21:03:22;213.40;;;140.80;;
60430;SDS011;46285;45.122;20.726;2024-02-15T21:13:24;237.98;;;142.07;;
60430;SDS011;46285;45.122;20.726;2024-02-15T21:23:27;172.75;;;95.45;;
60430;SDS011;46285;45.122;20.726;2024-02-15T21:33:30;241.27;;;151.25;;
60430;SDS011;46285;45.122;20.726;2024-02-15T21:43:32;152.98;;;97.10;;
60430;SDS011;46285;45.122;20.726;2024-02-15T21:53:34;262.83;;;134.95;;
60430;SDS011;46285;45.122;20.726;2024-02-15T22:03:37;198.88;;;109.72;;
60430;SDS011;46285;45.122;20.726;2024-02-15T22:13:40;237.68;;;132.80;;
60430;SDS011;46285;45.122;20.726;2024-02-15T22:23:43;332.02;;;184.75;;
60430;SDS011;46285;45.122;20.726;2024-02-15T22:33:46;220.20;;;124.10;;
60430;SDS011;46285;45.122;20.726;2024-02-15T22:43:48;217.15;;;123.57;;
60430;SDS011;46285;45.122;20.726;2024-02-15T22:53:51;198.35;;;113.28;;
60430;SDS011;46285;45.122;20.726;2024-02-15T23:03:53;244.70;;;141.88;;
60430;SDS011;46285;45.122;20.726;2024-02-15T23:13:55;261.75;;;150.38;;
60430;SDS011;46285;45.122;20.726;2024-02-15T23:23:57;312.13;;;177.50;;
60430;SDS011;46285;45.122;20.726;2024-02-15T23:33:59;320.33;;;172.35;;
60430;SDS011;46285;45.122;20.726;2024-02-15T23:44:02;249.32;;;134.77;;
60430;SDS011;46285;45.122;20.726;2024-02-15T23:54:06;204.25;;;117.50;;
